sensor_id;sensor_type;location;lat;lon;timestamp;temperature;humidity
15111;DHT22;7656;51.954;7.998;2023-05-07T00:01:45;16.40;99.90
15111;DHT22;7656;51.954;7.998;2023-05-07T00:06:06;16.50;99.90
15111;DHT22;7656;51.954;7.998;2023-05-07T00:10:27;16.50;99.90
15111;DHT22;7656;51.954;7.998;2023-05-07T00:14:48;16.50;99.90
15111;DHT22;7656;51.954;7.998;2023-05-07T00:19:09;16.50;99.90
15111;DHT22;7656;51.954;7.998;2023-05-07T00:23:31;16.50;99.90
15111;DHT22;7656;51.954;7.998;2023-05-07T00:27:52;16.50;99.90
15111;DHT22;7656;51.954;7.998;2023-05-07T00:32:14;16.40;99.90
15111;DHT22;7656;51.954;7.998;2023-05-07T00:36:35;16.40;99.90
15111;DHT22;7656;51.954;7.998;2023-05-07T00:40:56;16.40;99.90
15111;DHT22;7656;51.954;7.998;2023-05-07T00:45:17;16.30;99.90
15111;DHT22;7656;51.954;7.998;2023-05-07T00:49:43;16.20;99.90
15111;DHT22;7656;51.954;7.998;2023-05-07T00:54:05;16.10;99.90
15111;DHT22;7656;51.954;7.998;2023-05-07T00:58:26;16.20;99.90
15111;DHT22;7656;51.954;7.998;2023-05-07T01:02:48;16.20;99.90
15111;DHT22;7656;51.954;7.998;2023-05-07T01:07:09;16.10;99.90
15111;DHT22;7656;51.954;7.998;2023-05-07T01:11:31;16.20;99.90
15111;DHT22;7656;51.954;7.998;2023-05-07T01:15:52;16.20;99.90
15111;DHT22;7656;51.954;7.998;2023-05-07T01:20:13;16.20;99.90
15111;DHT22;7656;51.954;7.998;2023-05-07T01:24:36;16.00;99.90
15111;DHT22;7656;51.954;7.998;2023-05-07T01:28:59;15.90;99.90
15111;DHT22;7656;51.954;7.998;2023-05-07T01:33:21;15.90;99.90
15111;DHT22;7656;51.954;7.998;2023-05-07T01:37:43;15.90;99.90
15111;DHT22;7656;51.954;7.998;2023-05-07T01:42:04;15.80;99.90
15111;DHT22;7656;51.954;7.998;2023-05-07T01:46:26;15.70;99.90
15111;DHT22;7656;51.954;7.998;2023-05-07T01:50:48;15.50;99.90
15111;DHT22;7656;51.954;7.998;2023-05-07T01:55:10;15.60;99.90
15111;DHT22;7656;51.954;7.998;2023-05-07T01:59:31;15.30;99.90
15111;DHT22;7656;51.954;7.998;2023-05-07T02:03:52;15.40;99.90
15111;DHT22;7656;51.954;7.998;2023-05-07T02:08:18;15.10;99.90
15111;DHT22;7656;51.954;7.998;2023-05-07T02:12:40;14.90;99.90
15111;DHT22;7656;51.954;7.998;2023-05-07T02:17:01;14.90;99.90
15111;DHT22;7656;51.954;7.998;2023-05-07T02:21:22;14.70;99.90
15111;DHT22;7656;51.954;7.998;2023-05-07T02:25:43;14.50;99.90
15111;DHT22;7656;51.954;7.998;2023-05-07T02:30:05;14.70;99.90
15111;DHT22;7656;51.954;7.998;2023-05-07T02:34:27;14.80;99.90
15111;DHT22;7656;51.954;7.998;2023-05-07T02:38:48;14.90;99.90
15111;DHT22;7656;51.954;7.998;2023-05-07T02:43:09;15.10;99.90
15111;DHT22;7656;51.954;7.998;2023-05-07T02:47:30;14.80;99.90
15111;DHT22;7656;51.954;7.998;2023-05-07T02:51:55;14.60;99.90
15111;DHT22;7656;51.954;7.998;2023-05-07T02:56:19;14.40;99.90
15111;DHT22;7656;51.954;7.998;2023-05-07T03:00:40;14.40;99.90
15111;DHT22;7656;51.954;7.998;2023-05-07T03:05:14;14.30;99.90
15111;DHT22;7656;51.954;7.998;2023-05-07T03:09:35;14.10;99.90
15111;DHT22;7656;51.954;7.998;2023-05-07T03:13:58;14.20;99.90
15111;DHT22;7656;51.954;7.998;2023-05-07T03:18:19;14.00;99.90
15111;DHT22;7656;51.954;7.998;2023-05-07T03:22:40;14.00;99.90
15111;DHT22;7656;51.954;7.998;2023-05-07T03:27:01;14.10;99.90
15111;DHT22;7656;51.954;7.998;2023-05-07T03:31:23;13.90;99.90
15111;DHT22;7656;51.954;7.998;2023-05-07T03:35:45;13.60;99.90
15111;DHT22;7656;51.954;7.998;2023-05-07T03:40:11;13.80;99.90
15111;DHT22;7656;51.954;7.998;2023-05-07T03:44:39;13.70;99.90
15111;DHT22;7656;51.954;7.998;2023-05-07T03:49:01;13.70;99.90
15111;DHT22;7656;51.954;7.998;2023-05-07T03:53:23;13.60;99.90
15111;DHT22;7656;51.954;7.998;2023-05-07T03:57:44;13.70;99.90
15111;DHT22;7656;51.954;7.998;2023-05-07T04:02:05;13.50;99.90
15111;DHT22;7656;51.954;7.998;2023-05-07T04:06:28;13.70;99.90
15111;DHT22;7656;51.954;7.998;2023-05-07T04:10:55;13.80;99.90
15111;DHT22;7656;51.954;7.998;2023-05-07T04:15:18;13.80;99.90
15111;DHT22;7656;51.954;7.998;2023-05-07T04:19:39;13.80;99.90
15111;DHT22;7656;51.954;7.998;2023-05-07T04:24:02;13.60;99.90
15111;DHT22;7656;51.954;7.998;2023-05-07T04:28:24;13.60;99.90
15111;DHT22;7656;51.954;7.998;2023-05-07T04:32:46;13.80;99.90
15111;DHT22;7656;51.954;7.998;2023-05-07T04:37:07;13.80;99.90
15111;DHT22;7656;51.954;7.998;2023-05-07T04:41:28;14.10;99.90
15111;DHT22;7656;51.954;7.998;2023-05-07T04:45:51;14.30;99.90
15111;DHT22;7656;51.954;7.998;2023-05-07T04:50:13;14.40;99.90
15111;DHT22;7656;51.954;7.998;2023-05-07T04:54:36;14.00;99.90
15111;DHT22;7656;51.954;7.998;2023-05-07T04:58:57;13.70;99.90
15111;DHT22;7656;51.954;7.998;2023-05-07T05:03:19;13.30;99.90
15111;DHT22;7656;51.954;7.998;2023-05-07T05:07:40;13.30;99.90
15111;DHT22;7656;51.954;7.998;2023-05-07T05:12:02;13.30;99.90
15111;DHT22;7656;51.954;7.998;2023-05-07T05:16:24;13.60;99.90
15111;DHT22;7656;51.954;7.998;2023-05-07T05:20:45;13.90;99.90
15111;DHT22;7656;51.954;7.998;2023-05-07T05:25:07;13.90;99.90
15111;DHT22;7656;51.954;7.998;2023-05-07T05:29:28;13.90;99.90
15111;DHT22;7656;51.954;7.998;2023-05-07T05:33:50;13.80;99.90
15111;DHT22;7656;51.954;7.998;2023-05-07T05:38:11;13.70;99.90
15111;DHT22;7656;51.954;7.998;2023-05-07T05:42:34;13.90;99.90
15111;DHT22;7656;51.954;7.998;2023-05-07T05:46:55;13.90;99.90
15111;DHT22;7656;51.954;7.998;2023-05-07T05:51:20;13.90;99.90
15111;DHT22;7656;51.954;7.998;2023-05-07T05:55:42;13.90;99.90
15111;DHT22;7656;51.954;7.998;2023-05-07T06:00:04;14.10;99.90
15111;DHT22;7656;51.954;7.998;2023-05-07T06:04:28;14.30;99.90
15111;DHT22;7656;51.954;7.998;2023-05-07T06:08:50;14.20;99.90
15111;DHT22;7656;51.954;7.998;2023-05-07T06:13:16;14.20;99.90
15111;DHT22;7656;51.954;7.998;2023-05-07T06:17:37;14.50;99.90
15111;DHT22;7656;51.954;7.998;2023-05-07T06:21:59;14.80;99.90
15111;DHT22;7656;51.954;7.998;2023-05-07T06:26:23;14.90;99.90
15111;DHT22;7656;51.954;7.998;2023-05-07T06:30:45;14.90;99.90
15111;DHT22;7656;51.954;7.998;2023-05-07T06:35:07;15.00;99.90
15111;DHT22;7656;51.954;7.998;2023-05-07T06:39:31;15.30;99.90
15111;DHT22;7656;51.954;7.998;2023-05-07T06:43:53;15.60;99.90
15111;DHT22;7656;51.954;7.998;2023-05-07T06:48:37;15.30;99.90
15111;DHT22;7656;51.954;7.998;2023-05-07T06:53:00;15.00;99.90
15111;DHT22;7656;51.954;7.998;2023-05-07T06:57:21;14.80;99.90
15111;DHT22;7656;51.954;7.998;2023-05-07T07:01:42;14.70;99.90
15111;DHT22;7656;51.954;7.998;2023-05-07T07:06:05;14.90;99.90
15111;DHT22;7656;51.954;7.998;2023-05-07T07:10:27;15.00;99.90
15111;DHT22;7656;51.954;7.998;2023-05-07T07:14:49;14.80;99.90
15111;DHT22;7656;51.954;7.998;2023-05-07T07:19:11;15.00;99.90
15111;DHT22;7656;51.954;7.998;2023-05-07T07:23:32;15.00;99.90
15111;DHT22;7656;51.954;7.998;2023-05-07T07:27:53;15.00;99.90
15111;DHT22;7656;51.954;7.998;2023-05-07T07:32:17;15.20;99.90
15111;DHT22;7656;51.954;7.998;2023-05-07T07:36:38;15.80;99.90
15111;DHT22;7656;51.954;7.998;2023-05-07T07:41:01;15.30;99.90
15111;DHT22;7656;51.954;7.998;2023-05-07T07:45:23;15.40;99.90
15111;DHT22;7656;51.954;7.998;2023-05-07T07:49:46;15.40;99.90
15111;DHT22;7656;51.954;7.998;2023-05-07T07:54:07;15.50;99.90
15111;DHT22;7656;51.954;7.998;2023-05-07T07:58:30;15.60;99.90
15111;DHT22;7656;51.954;7.998;2023-05-07T08:02:52;15.50;99.90
15111;DHT22;7656;51.954;7.998;2023-05-07T08:07:19;15.60;99.90
15111;DHT22;7656;51.954;7.998;2023-05-07T08:11:43;15.80;99.90
15111;DHT22;7656;51.954;7.998;2023-05-07T08:16:04;15.70;99.90
15111;DHT22;7656;51.954;7.998;2023-05-07T08:20:26;15.80;99.90
15111;DHT22;7656;51.954;7.998;2023-05-07T08:24:49;16.20;99.90
15111;DHT22;7656;51.954;7.998;2023-05-07T08:29:10;16.80;99.90
15111;DHT22;7656;51.954;7.998;2023-05-07T08:33:32;17.70;99.90
15111;DHT22;7656;51.954;7.998;2023-05-07T08:42:16;19.30;99.90
15111;DHT22;7656;51.954;7.998;2023-05-07T08:46:39;18.30;99.90
15111;DHT22;7656;51.954;7.998;2023-05-07T08:51:01;18.20;99.90
15111;DHT22;7656;51.954;7.998;2023-05-07T08:55:23;17.60;99.90
15111;DHT22;7656;51.954;7.998;2023-05-07T08:59:45;17.30;99.90
15111;DHT22;7656;51.954;7.998;2023-05-07T09:04:07;17.00;99.90
15111;DHT22;7656;51.954;7.998;2023-05-07T09:08:29;17.00;99.90
15111;DHT22;7656;51.954;7.998;2023-05-07T09:12:54;17.00;99.90
15111;DHT22;7656;51.954;7.998;2023-05-07T09:17:16;17.30;99.90
15111;DHT22;7656;51.954;7.998;2023-05-07T09:21:37;17.90;99.90
15111;DHT22;7656;51.954;7.998;2023-05-07T09:26:02;17.90;99.90
15111;DHT22;7656;51.954;7.998;2023-05-07T09:30:29;18.00;99.90
15111;DHT22;7656;51.954;7.998;2023-05-07T09:34:52;17.40;99.90
15111;DHT22;7656;51.954;7.998;2023-05-07T09:39:17;17.70;99.90
15111;DHT22;7656;51.954;7.998;2023-05-07T09:43:39;18.40;99.90
15111;DHT22;7656;51.954;7.998;2023-05-07T09:48:05;18.30;99.90
15111;DHT22;7656;51.954;7.998;2023-05-07T09:52:28;18.50;99.90
15111;DHT22;7656;51.954;7.998;2023-05-07T09:56:56;18.90;99.90
15111;DHT22;7656;51.954;7.998;2023-05-07T10:01:21;19.00;99.90
15111;DHT22;7656;51.954;7.998;2023-05-07T10:05:44;19.10;99.90
15111;DHT22;7656;51.954;7.998;2023-05-07T10:10:09;19.20;99.90
15111;DHT22;7656;51.954;7.998;2023-05-07T10:14:35;19.60;99.90
15111;DHT22;7656;51.954;7.998;2023-05-07T10:18:58;19.70;99.90
15111;DHT22;7656;51.954;7.998;2023-05-07T10:23:23;19.30;99.90
15111;DHT22;7656;51.954;7.998;2023-05-07T10:27:48;19.30;99.90
15111;DHT22;7656;51.954;7.998;2023-05-07T10:32:38;20.00;99.90
15111;DHT22;7656;51.954;7.998;2023-05-07T10:37:05;19.90;99.90
15111;DHT22;7656;51.954;7.998;2023-05-07T10:41:27;20.10;99.90
15111;DHT22;7656;51.954;7.998;2023-05-07T10:46:11;20.10;99.90
15111;DHT22;7656;51.954;7.998;2023-05-07T10:50:38;20.50;99.90
15111;DHT22;7656;51.954;7.998;2023-05-07T10:59:43;21.90;99.90
15111;DHT22;7656;51.954;7.998;2023-05-07T11:04:15;21.80;99.90
15111;DHT22;7656;51.954;7.998;2023-05-07T11:13:15;21.10;99.90
15111;DHT22;7656;51.954;7.998;2023-05-07T11:17:58;20.80;99.90
15111;DHT22;7656;51.954;7.998;2023-05-07T11:27:08;20.70;99.90
15111;DHT22;7656;51.954;7.998;2023-05-07T11:31:31;21.30;99.90
15111;DHT22;7656;51.954;7.998;2023-05-07T11:35:56;21.70;99.90
15111;DHT22;7656;51.954;7.998;2023-05-07T11:40:24;21.80;99.90
15111;DHT22;7656;51.954;7.998;2023-05-07T11:44:45;21.60;99.90
15111;DHT22;7656;51.954;7.998;2023-05-07T11:49:06;22.20;99.90
15111;DHT22;7656;51.954;7.998;2023-05-07T11:53:35;22.50;99.90
15111;DHT22;7656;51.954;7.998;2023-05-07T11:57:57;21.70;99.90
15111;DHT22;7656;51.954;7.998;2023-05-07T12:02:19;22.20;99.90
15111;DHT22;7656;51.954;7.998;2023-05-07T12:06:40;21.80;99.90
15111;DHT22;7656;51.954;7.998;2023-05-07T12:11:01;22.00;99.90
15111;DHT22;7656;51.954;7.998;2023-05-07T12:15:22;22.50;99.90
15111;DHT22;7656;51.954;7.998;2023-05-07T12:19:44;21.80;99.90
15111;DHT22;7656;51.954;7.998;2023-05-07T12:24:06;21.50;99.90
15111;DHT22;7656;51.954;7.998;2023-05-07T12:28:27;22.30;99.90
15111;DHT22;7656;51.954;7.998;2023-05-07T12:32:52;22.20;99.90
15111;DHT22;7656;51.954;7.998;2023-05-07T12:37:13;22.30;99.90
15111;DHT22;7656;51.954;7.998;2023-05-07T12:41:54;22.60;99.90
15111;DHT22;7656;51.954;7.998;2023-05-07T12:46:21;23.40;99.90
15111;DHT22;7656;51.954;7.998;2023-05-07T12:50:44;22.80;99.90
15111;DHT22;7656;51.954;7.998;2023-05-07T12:55:06;22.60;99.90
15111;DHT22;7656;51.954;7.998;2023-05-07T12:59:39;22.40;99.90
15111;DHT22;7656;51.954;7.998;2023-05-07T13:04:01;22.40;99.90
15111;DHT22;7656;51.954;7.998;2023-05-07T13:08:25;22.40;99.90
15111;DHT22;7656;51.954;7.998;2023-05-07T13:12:47;22.20;99.90
15111;DHT22;7656;51.954;7.998;2023-05-07T13:17:08;22.20;99.90
15111;DHT22;7656;51.954;7.998;2023-05-07T13:21:29;21.80;99.90
15111;DHT22;7656;51.954;7.998;2023-05-07T13:25:52;22.30;99.90
15111;DHT22;7656;51.954;7.998;2023-05-07T13:30:14;22.00;99.90
15111;DHT22;7656;51.954;7.998;2023-05-07T13:34:35;21.90;99.90
15111;DHT22;7656;51.954;7.998;2023-05-07T13:38:57;21.50;99.90
15111;DHT22;7656;51.954;7.998;2023-05-07T13:43:20;21.50;99.90
15111;DHT22;7656;51.954;7.998;2023-05-07T13:47:41;21.90;99.90
15111;DHT22;7656;51.954;7.998;2023-05-07T13:52:03;22.50;99.90
15111;DHT22;7656;51.954;7.998;2023-05-07T13:56:25;22.20;99.90
15111;DHT22;7656;51.954;7.998;2023-05-07T14:00:46;22.30;99.90
15111;DHT22;7656;51.954;7.998;2023-05-07T14:05:07;22.10;99.90
15111;DHT22;7656;51.954;7.998;2023-05-07T14:09:30;22.10;99.90
15111;DHT22;7656;51.954;7.998;2023-05-07T14:13:51;21.80;99.90
15111;DHT22;7656;51.954;7.998;2023-05-07T14:18:12;21.30;99.90
15111;DHT22;7656;51.954;7.998;2023-05-07T14:22:33;20.70;99.90
15111;DHT22;7656;51.954;7.998;2023-05-07T14:26:55;20.60;99.90
15111;DHT22;7656;51.954;7.998;2023-05-07T14:31:16;20.50;99.90
15111;DHT22;7656;51.954;7.998;2023-05-07T14:35:37;19.90;99.90
15111;DHT22;7656;51.954;7.998;2023-05-07T14:39:58;20.10;99.90
15111;DHT22;7656;51.954;7.998;2023-05-07T14:44:19;20.20;99.90
15111;DHT22;7656;51.954;7.998;2023-05-07T14:48:41;20.40;99.90
15111;DHT22;7656;51.954;7.998;2023-05-07T14:53:02;20.20;99.90
15111;DHT22;7656;51.954;7.998;2023-05-07T14:57:24;20.40;99.90
15111;DHT22;7656;51.954;7.998;2023-05-07T15:01:45;20.50;99.90
15111;DHT22;7656;51.954;7.998;2023-05-07T15:06:07;20.30;99.90
15111;DHT22;7656;51.954;7.998;2023-05-07T15:10:28;20.90;99.90
15111;DHT22;7656;51.954;7.998;2023-05-07T15:14:49;21.50;99.90
15111;DHT22;7656;51.954;7.998;2023-05-07T15:19:11;22.10;99.90
15111;DHT22;7656;51.954;7.998;2023-05-07T15:23:32;22.00;99.90
15111;DHT22;7656;51.954;7.998;2023-05-07T15:27:53;21.70;99.90
15111;DHT22;7656;51.954;7.998;2023-05-07T15:32:14;20.90;99.90
15111;DHT22;7656;51.954;7.998;2023-05-07T15:36:35;20.90;99.90
15111;DHT22;7656;51.954;7.998;2023-05-07T15:40:56;20.60;99.90
15111;DHT22;7656;51.954;7.998;2023-05-07T15:45:17;20.70;99.90
15111;DHT22;7656;51.954;7.998;2023-05-07T15:49:38;20.40;99.90
15111;DHT22;7656;51.954;7.998;2023-05-07T15:53:59;20.60;99.90
15111;DHT22;7656;51.954;7.998;2023-05-07T15:58:21;20.60;99.90
15111;DHT22;7656;51.954;7.998;2023-05-07T16:02:42;20.10;99.90
15111;DHT22;7656;51.954;7.998;2023-05-07T16:07:03;20.00;99.90
15111;DHT22;7656;51.954;7.998;2023-05-07T16:11:25;20.00;99.90
15111;DHT22;7656;51.954;7.998;2023-05-07T16:15:46;19.60;99.90
15111;DHT22;7656;51.954;7.998;2023-05-07T16:20:08;19.60;99.90
15111;DHT22;7656;51.954;7.998;2023-05-07T16:24:32;19.80;99.90
15111;DHT22;7656;51.954;7.998;2023-05-07T16:28:53;19.50;99.90
15111;DHT22;7656;51.954;7.998;2023-05-07T16:33:14;19.20;99.90
15111;DHT22;7656;51.954;7.998;2023-05-07T16:37:36;19.00;99.90
15111;DHT22;7656;51.954;7.998;2023-05-07T16:42:00;19.10;99.90
15111;DHT22;7656;51.954;7.998;2023-05-07T16:46:21;19.10;99.90
15111;DHT22;7656;51.954;7.998;2023-05-07T16:50:42;19.10;99.90
15111;DHT22;7656;51.954;7.998;2023-05-07T16:55:04;19.20;99.90
15111;DHT22;7656;51.954;7.998;2023-05-07T16:59:26;19.40;99.90
15111;DHT22;7656;51.954;7.998;2023-05-07T17:03:51;19.40;99.90
15111;DHT22;7656;51.954;7.998;2023-05-07T17:08:13;19.10;99.90
15111;DHT22;7656;51.954;7.998;2023-05-07T17:12:34;19.20;99.90
15111;DHT22;7656;51.954;7.998;2023-05-07T17:16:55;19.40;99.90
15111;DHT22;7656;51.954;7.998;2023-05-07T17:21:16;19.60;99.90
15111;DHT22;7656;51.954;7.998;2023-05-07T17:25:37;19.40;99.90
15111;DHT22;7656;51.954;7.998;2023-05-07T17:29:59;19.30;99.90
15111;DHT22;7656;51.954;7.998;2023-05-07T17:34:21;19.20;99.90
15111;DHT22;7656;51.954;7.998;2023-05-07T17:38:42;18.70;99.90
15111;DHT22;7656;51.954;7.998;2023-05-07T17:43:03;18.50;99.90
15111;DHT22;7656;51.954;7.998;2023-05-07T17:47:25;18.60;99.90
15111;DHT22;7656;51.954;7.998;2023-05-07T17:51:46;18.70;99.90
15111;DHT22;7656;51.954;7.998;2023-05-07T17:56:08;18.80;99.90
15111;DHT22;7656;51.954;7.998;2023-05-07T18:00:29;18.60;99.90
15111;DHT22;7656;51.954;7.998;2023-05-07T18:04:50;18.70;99.90
15111;DHT22;7656;51.954;7.998;2023-05-07T18:09:11;18.10;99.90
15111;DHT22;7656;51.954;7.998;2023-05-07T18:13:32;17.80;99.90
15111;DHT22;7656;51.954;7.998;2023-05-07T18:17:53;17.70;99.90
15111;DHT22;7656;51.954;7.998;2023-05-07T18:22:15;17.60;99.90
15111;DHT22;7656;51.954;7.998;2023-05-07T18:26:36;17.40;99.90
15111;DHT22;7656;51.954;7.998;2023-05-07T18:30:57;17.30;99.90
15111;DHT22;7656;51.954;7.998;2023-05-07T18:35:18;17.10;99.90
15111;DHT22;7656;51.954;7.998;2023-05-07T18:39:39;16.90;99.90
15111;DHT22;7656;51.954;7.998;2023-05-07T18:44:00;16.90;99.90
15111;DHT22;7656;51.954;7.998;2023-05-07T18:48:21;16.80;99.90
15111;DHT22;7656;51.954;7.998;2023-05-07T18:52:42;16.80;99.90
15111;DHT22;7656;51.954;7.998;2023-05-07T18:57:04;16.70;99.90
15111;DHT22;7656;51.954;7.998;2023-05-07T19:01:25;16.80;99.90
15111;DHT22;7656;51.954;7.998;2023-05-07T19:05:46;16.90;99.90
15111;DHT22;7656;51.954;7.998;2023-05-07T19:10:07;17.00;99.90
15111;DHT22;7656;51.954;7.998;2023-05-07T19:14:29;16.80;99.90
15111;DHT22;7656;51.954;7.998;2023-05-07T19:18:50;16.60;99.90
15111;DHT22;7656;51.954;7.998;2023-05-07T19:23:11;16.50;99.90
15111;DHT22;7656;51.954;7.998;2023-05-07T19:27:32;16.60;99.90
15111;DHT22;7656;51.954;7.998;2023-05-07T19:31:53;16.50;99.90
15111;DHT22;7656;51.954;7.998;2023-05-07T19:36:15;16.70;99.90
15111;DHT22;7656;51.954;7.998;2023-05-07T19:40:37;16.70;99.90
15111;DHT22;7656;51.954;7.998;2023-05-07T19:44:58;16.40;99.90
15111;DHT22;7656;51.954;7.998;2023-05-07T19:49:19;16.10;99.90
15111;DHT22;7656;51.954;7.998;2023-05-07T19:53:40;16.00;99.90
15111;DHT22;7656;51.954;7.998;2023-05-07T19:58:02;15.90;99.90
15111;DHT22;7656;51.954;7.998;2023-05-07T20:02:23;15.60;99.90
15111;DHT22;7656;51.954;7.998;2023-05-07T20:06:44;15.60;99.90
15111;DHT22;7656;51.954;7.998;2023-05-07T20:11:05;15.60;99.90
15111;DHT22;7656;51.954;7.998;2023-05-07T20:15:26;15.50;99.90
15111;DHT22;7656;51.954;7.998;2023-05-07T20:19:47;15.50;99.90
15111;DHT22;7656;51.954;7.998;2023-05-07T20:24:09;15.40;99.90
15111;DHT22;7656;51.954;7.998;2023-05-07T20:28:30;15.30;99.90
15111;DHT22;7656;51.954;7.998;2023-05-07T20:32:51;15.40;99.90
15111;DHT22;7656;51.954;7.998;2023-05-07T20:37:13;15.30;99.90
15111;DHT22;7656;51.954;7.998;2023-05-07T20:41:35;15.10;99.90
15111;DHT22;7656;51.954;7.998;2023-05-07T20:46:00;15.00;99.90
15111;DHT22;7656;51.954;7.998;2023-05-07T20:50:23;14.90;99.90
15111;DHT22;7656;51.954;7.998;2023-05-07T20:54:46;15.00;99.90
15111;DHT22;7656;51.954;7.998;2023-05-07T20:59:09;15.00;99.90
15111;DHT22;7656;51.954;7.998;2023-05-07T21:03:31;15.30;99.90
15111;DHT22;7656;51.954;7.998;2023-05-07T21:07:52;15.40;99.90
15111;DHT22;7656;51.954;7.998;2023-05-07T21:12:13;15.30;99.90
15111;DHT22;7656;51.954;7.998;2023-05-07T21:16:34;14.90;99.90
15111;DHT22;7656;51.954;7.998;2023-05-07T21:20:56;14.60;99.90
15111;DHT22;7656;51.954;7.998;2023-05-07T21:25:17;14.80;99.90
15111;DHT22;7656;51.954;7.998;2023-05-07T21:29:38;15.00;99.90
15111;DHT22;7656;51.954;7.998;2023-05-07T21:33:59;14.60;99.90
15111;DHT22;7656;51.954;7.998;2023-05-07T21:38:20;14.70;99.90
15111;DHT22;7656;51.954;7.998;2023-05-07T21:42:41;14.30;99.90
15111;DHT22;7656;51.954;7.998;2023-05-07T21:47:02;14.20;99.90
15111;DHT22;7656;51.954;7.998;2023-05-07T21:51:23;14.00;99.90
15111;DHT22;7656;51.954;7.998;2023-05-07T21:55:44;13.80;99.90
15111;DHT22;7656;51.954;7.998;2023-05-07T22:00:06;13.60;99.90
15111;DHT22;7656;51.954;7.998;2023-05-07T22:04:28;13.60;99.90
15111;DHT22;7656;51.954;7.998;2023-05-07T22:08:50;13.50;99.90
15111;DHT22;7656;51.954;7.998;2023-05-07T22:13:11;13.30;99.90
15111;DHT22;7656;51.954;7.998;2023-05-07T22:17:32;13.20;99.90
15111;DHT22;7656;51.954;7.998;2023-05-07T22:21:53;13.20;99.90
15111;DHT22;7656;51.954;7.998;2023-05-07T22:26:14;13.30;99.90
15111;DHT22;7656;51.954;7.998;2023-05-07T22:30:36;13.20;99.90
15111;DHT22;7656;51.954;7.998;2023-05-07T22:34:57;13.10;99.90
15111;DHT22;7656;51.954;7.998;2023-05-07T22:39:18;13.10;99.90
15111;DHT22;7656;51.954;7.998;2023-05-07T22:43:39;13.00;99.90
15111;DHT22;7656;51.954;7.998;2023-05-07T22:48:00;12.90;99.90
15111;DHT22;7656;51.954;7.998;2023-05-07T22:52:21;12.90;99.90
15111;DHT22;7656;51.954;7.998;2023-05-07T22:56:42;12.90;99.90
15111;DHT22;7656;51.954;7.998;2023-05-07T23:01:10;12.70;99.90
15111;DHT22;7656;51.954;7.998;2023-05-07T23:05:35;12.60;99.90
15111;DHT22;7656;51.954;7.998;2023-05-07T23:09:57;12.70;99.90
15111;DHT22;7656;51.954;7.998;2023-05-07T23:14:18;12.50;99.90
15111;DHT22;7656;51.954;7.998;2023-05-07T23:18:39;12.40;99.90
15111;DHT22;7656;51.954;7.998;2023-05-07T23:23:00;12.40;99.90
15111;DHT22;7656;51.954;7.998;2023-05-07T23:27:21;12.40;99.90
15111;DHT22;7656;51.954;7.998;2023-05-07T23:31:42;12.50;99.90
15111;DHT22;7656;51.954;7.998;2023-05-07T23:36:05;12.60;99.90
15111;DHT22;7656;51.954;7.998;2023-05-07T23:40:26;12.40;99.90
15111;DHT22;7656;51.954;7.998;2023-05-07T23:44:48;12.50;99.90
15111;DHT22;7656;51.954;7.998;2023-05-07T23:49:09;12.60;99.90
15111;DHT22;7656;51.954;7.998;2023-05-07T23:53:30;12.50;99.90
15111;DHT22;7656;51.954;7.998;2023-05-07T23:57:51;12.40;99.90
